sensor_id;sensor_type;location;lat;lon;timestamp;pressure;altitude;pressure_sealevel;temperature;humidity
10587;BME280;5341;47.606;7.576;2023-04-27T00:00:19;98848.16;;;16.42;50.62
10587;BME280;5341;47.606;7.576;2023-04-27T00:02:47;98855.63;;;16.40;50.94
10587;BME280;5341;47.606;7.576;2023-04-27T00:05:14;98853.16;;;16.39;50.57
10587;BME280;5341;47.606;7.576;2023-04-27T00:07:42;98852.56;;;16.37;50.79
10587;BME280;5341;47.606;7.576;2023-04-27T00:10:10;98852.78;;;16.35;50.61
10587;BME280;5341;47.606;7.576;2023-04-27T00:12:37;98846.75;;;16.33;50.56
10587;BME280;5341;47.606;7.576;2023-04-27T00:15:08;98849.66;;;16.32;50.32
10587;BME280;5341;47.606;7.576;2023-04-27T00:17:38;98839.69;;;16.32;50.64
10587;BME280;5341;47.606;7.576;2023-04-27T00:20:07;98841.78;;;16.30;50.72
10587;BME280;5341;47.606;7.576;2023-04-27T00:22:37;98837.44;;;16.29;50.51
10587;BME280;5341;47.606;7.576;2023-04-27T00:25:04;98842.84;;;16.29;50.59
10587;BME280;5341;47.606;7.576;2023-04-27T00:27:32;98846.56;;;16.28;50.44
10587;BME280;5341;47.606;7.576;2023-04-27T00:30:00;98853.03;;;16.27;50.76
10587;BME280;5341;47.606;7.576;2023-04-27T00:32:28;98849.50;;;16.27;50.63
10587;BME280;5341;47.606;7.576;2023-04-27T00:34:58;98842.44;;;16.26;50.50
10587;BME280;5341;47.606;7.576;2023-04-27T00:37:26;98842.44;;;16.26;50.55
10587;BME280;5341;47.606;7.576;2023-04-27T00:39:53;98836.44;;;16.24;50.53
10587;BME280;5341;47.606;7.576;2023-04-27T00:42:21;98841.22;;;16.22;50.88
10587;BME280;5341;47.606;7.576;2023-04-27T00:44:51;98840.38;;;16.21;50.60
10587;BME280;5341;47.606;7.576;2023-04-27T00:47:18;98840.38;;;16.21;50.62
10587;BME280;5341;47.606;7.576;2023-04-27T00:49:46;98843.31;;;16.20;50.80
10587;BME280;5341;47.606;7.576;2023-04-27T00:52:15;98828.16;;;16.19;50.77
10587;BME280;5341;47.606;7.576;2023-04-27T00:54:42;98837.06;;;16.19;50.63
10587;BME280;5341;47.606;7.576;2023-04-27T00:57:11;98832.72;;;16.18;50.73
10587;BME280;5341;47.606;7.576;2023-04-27T00:59:39;98826.50;;;16.18;50.65
10587;BME280;5341;47.606;7.576;2023-04-27T01:02:07;98830.25;;;16.17;50.54
10587;BME280;5341;47.606;7.576;2023-04-27T01:04:35;98837.50;;;16.16;51.03
10587;BME280;5341;47.606;7.576;2023-04-27T01:07:03;98841.25;;;16.15;50.62
10587;BME280;5341;47.606;7.576;2023-04-27T01:09:32;98844.19;;;16.14;50.87
10587;BME280;5341;47.606;7.576;2023-04-27T01:12:00;98844.19;;;16.14;50.97
10587;BME280;5341;47.606;7.576;2023-04-27T01:14:28;98844.41;;;16.12;50.80
10587;BME280;5341;47.606;7.576;2023-04-27T01:16:55;98840.88;;;16.11;50.77
10587;BME280;5341;47.606;7.576;2023-04-27T01:19:23;98841.06;;;16.10;51.00
10587;BME280;5341;47.606;7.576;2023-04-27T01:21:52;98842.94;;;16.09;50.88
10587;BME280;5341;47.606;7.576;2023-04-27T01:24:21;98843.97;;;16.08;50.85
10587;BME280;5341;47.606;7.576;2023-04-27T01:26:49;98846.91;;;16.07;51.07
10587;BME280;5341;47.606;7.576;2023-04-27T01:29:18;98861.22;;;16.07;51.13
10587;BME280;5341;47.606;7.576;2023-04-27T01:31:47;98852.28;;;16.07;51.02
10587;BME280;5341;47.606;7.576;2023-04-27T01:34:14;98851.47;;;16.06;51.11
10587;BME280;5341;47.606;7.576;2023-04-27T01:36:46;98849.81;;;16.05;51.04
10587;BME280;5341;47.606;7.576;2023-04-27T01:39:14;98855.44;;;16.04;51.12
10587;BME280;5341;47.606;7.576;2023-04-27T01:41:43;98863.53;;;16.04;50.89
10587;BME280;5341;47.606;7.576;2023-04-27T01:44:10;98852.94;;;16.02;50.96
10587;BME280;5341;47.606;7.576;2023-04-27T01:46:38;98850.25;;;16.02;50.91
10587;BME280;5341;47.606;7.576;2023-04-27T01:49:06;98846.72;;;16.02;51.12
10587;BME280;5341;47.606;7.576;2023-04-27T01:51:33;98843.19;;;16.01;50.82
10587;BME280;5341;47.606;7.576;2023-04-27T01:54:01;98842.59;;;15.99;50.88
10587;BME280;5341;47.606;7.576;2023-04-27T01:56:28;98856.09;;;15.99;51.14
10587;BME280;5341;47.606;7.576;2023-04-27T01:58:58;98849.00;;;15.98;50.94
10587;BME280;5341;47.606;7.576;2023-04-27T02:01:25;98853.56;;;15.98;50.94
10587;BME280;5341;47.606;7.576;2023-04-27T02:03:54;98843.81;;;15.97;51.04
10587;BME280;5341;47.606;7.576;2023-04-27T02:06:22;98850.28;;;15.96;50.88
10587;BME280;5341;47.606;7.576;2023-04-27T02:08:52;98842.41;;;15.94;51.29
10587;BME280;5341;47.606;7.576;2023-04-27T02:11:20;98848.63;;;15.95;51.09
10587;BME280;5341;47.606;7.576;2023-04-27T02:13:49;98838.03;;;15.93;51.23
10587;BME280;5341;47.606;7.576;2023-04-27T02:16:18;98848.00;;;15.93;51.07
10587;BME280;5341;47.606;7.576;2023-04-27T02:18:46;98859.00;;;15.91;51.11
10587;BME280;5341;47.606;7.576;2023-04-27T02:21:15;98855.50;;;15.91;51.24
10587;BME280;5341;47.606;7.576;2023-04-27T02:23:43;98851.13;;;15.90;51.40
10587;BME280;5341;47.606;7.576;2023-04-27T02:26:15;98848.44;;;15.90;51.02
10587;BME280;5341;47.606;7.576;2023-04-27T02:28:44;98842.44;;;15.88;51.52
10587;BME280;5341;47.606;7.576;2023-04-27T02:31:12;98837.22;;;15.86;51.25
10587;BME280;5341;47.606;7.576;2023-04-27T02:33:42;98840.97;;;15.85;51.47
10587;BME280;5341;47.606;7.576;2023-04-27T02:36:09;98839.31;;;15.84;51.27
10587;BME280;5341;47.606;7.576;2023-04-27T02:38:37;98841.19;;;15.83;51.42
10587;BME280;5341;47.606;7.576;2023-04-27T02:41:04;98830.84;;;15.80;51.34
10587;BME280;5341;47.606;7.576;2023-04-27T02:43:34;98838.94;;;15.80;51.39
10587;BME280;5341;47.606;7.576;2023-04-27T02:46:04;98835.63;;;15.78;51.53
10587;BME280;5341;47.606;7.576;2023-04-27T02:48:32;98838.75;;;15.75;51.44
10587;BME280;5341;47.606;7.576;2023-04-27T02:51:04;98838.94;;;15.74;51.30
10587;BME280;5341;47.606;7.576;2023-04-27T02:53:31;98836.25;;;15.74;51.07
10587;BME280;5341;47.606;7.576;2023-04-27T02:56:00;98839.16;;;15.72;51.40
10587;BME280;5341;47.606;7.576;2023-04-27T02:58:28;98830.47;;;15.70;51.55
10587;BME280;5341;47.606;7.576;2023-04-27T03:00:56;98836.69;;;15.71;51.64
10587;BME280;5341;47.606;7.576;2023-04-27T03:03:24;98833.38;;;15.69;51.47
10587;BME280;5341;47.606;7.576;2023-04-27T03:05:52;98834.63;;;15.66;51.41
10587;BME280;5341;47.606;7.576;2023-04-27T03:08:21;98833.00;;;15.65;51.32
10587;BME280;5341;47.606;7.576;2023-04-27T03:10:49;98835.06;;;15.63;51.53
10587;BME280;5341;47.606;7.576;2023-04-27T03:13:17;98846.03;;;15.62;51.60
10587;BME280;5341;47.606;7.576;2023-04-27T03:15:45;98842.50;;;15.61;51.61
10587;BME280;5341;47.606;7.576;2023-04-27T03:18:14;98838.16;;;15.60;51.83
10587;BME280;5341;47.606;7.576;2023-04-27T03:20:42;98840.88;;;15.60;51.50
10587;BME280;5341;47.606;7.576;2023-04-27T03:23:10;98841.88;;;15.59;51.45
10587;BME280;5341;47.606;7.576;2023-04-27T03:25:39;98828.84;;;15.56;51.67
10587;BME280;5341;47.606;7.576;2023-04-27T03:28:07;98839.63;;;15.56;51.57
10587;BME280;5341;47.606;7.576;2023-04-27T03:30:37;98837.97;;;15.55;51.77
10587;BME280;5341;47.606;7.576;2023-04-27T03:33:05;98851.66;;;15.53;51.56
10587;BME280;5341;47.606;7.576;2023-04-27T03:35:33;98850.00;;;15.52;51.53
10587;BME280;5341;47.606;7.576;2023-04-27T03:38:02;98841.91;;;15.52;51.56
10587;BME280;5341;47.606;7.576;2023-04-27T03:40:31;98843.97;;;15.50;51.82
10587;BME280;5341;47.606;7.576;2023-04-27T03:43:03;98833.41;;;15.49;51.66
10587;BME280;5341;47.606;7.576;2023-04-27T03:45:31;98848.75;;;15.48;51.68
10587;BME280;5341;47.606;7.576;2023-04-27T03:47:59;98847.91;;;15.48;51.87
10587;BME280;5341;47.606;7.576;2023-04-27T03:50:26;98841.91;;;15.46;51.87
10587;BME280;5341;47.606;7.576;2023-04-27T03:52:54;98848.97;;;15.47;51.97
10587;BME280;5341;47.606;7.576;2023-04-27T03:55:22;98852.69;;;15.46;51.76
10587;BME280;5341;47.606;7.576;2023-04-27T03:57:51;98858.09;;;15.46;52.02
10587;BME280;5341;47.606;7.576;2023-04-27T04:00:21;98844.84;;;15.44;52.15
10587;BME280;5341;47.606;7.576;2023-04-27T04:02:49;98849.41;;;15.44;52.12
10587;BME280;5341;47.606;7.576;2023-04-27T04:05:18;98849.59;;;15.42;52.16
10587;BME280;5341;47.606;7.576;2023-04-27T04:07:48;98852.53;;;15.41;52.06
10587;BME280;5341;47.606;7.576;2023-04-27T04:10:15;98851.69;;;15.40;52.19
10587;BME280;5341;47.606;7.576;2023-04-27T04:12:46;98854.59;;;15.39;52.18
10587;BME280;5341;47.606;7.576;2023-04-27T04:15:16;98851.91;;;15.39;52.04
10587;BME280;5341;47.606;7.576;2023-04-27T04:17:46;98845.88;;;15.37;52.09
10587;BME280;5341;47.606;7.576;2023-04-27T04:20:15;98849.41;;;15.37;52.47
10587;BME280;5341;47.606;7.576;2023-04-27T04:22:43;98855.00;;;15.36;52.38
10587;BME280;5341;47.606;7.576;2023-04-27T04:25:11;98857.69;;;15.36;52.27
10587;BME280;5341;47.606;7.576;2023-04-27T04:27:40;98854.16;;;15.35;52.35
10587;BME280;5341;47.606;7.576;2023-04-27T04:30:09;98854.16;;;15.35;52.08
10587;BME280;5341;47.606;7.576;2023-04-27T04:32:37;98859.78;;;15.34;52.39
10587;BME280;5341;47.606;7.576;2023-04-27T04:35:07;98853.56;;;15.33;52.32
10587;BME280;5341;47.606;7.576;2023-04-27T04:37:35;98860.81;;;15.33;52.39
10587;BME280;5341;47.606;7.576;2023-04-27T04:40:05;98857.28;;;15.32;52.48
10587;BME280;5341;47.606;7.576;2023-04-27T04:42:36;98864.56;;;15.32;52.41
10587;BME280;5341;47.606;7.576;2023-04-27T04:45:05;98847.56;;;15.31;52.30
10587;BME280;5341;47.606;7.576;2023-04-27T04:47:34;98855.84;;;15.30;52.34
10587;BME280;5341;47.606;7.576;2023-04-27T04:50:01;98857.09;;;15.27;52.52
10587;BME280;5341;47.606;7.576;2023-04-27T04:52:31;98859.16;;;15.25;52.50
10587;BME280;5341;47.606;7.576;2023-04-27T04:54:59;98861.84;;;15.25;52.61
10587;BME280;5341;47.606;7.576;2023-04-27T04:57:26;98865.38;;;15.25;52.69
10587;BME280;5341;47.606;7.576;2023-04-27T04:59:54;98861.84;;;15.25;52.48
10587;BME280;5341;47.606;7.576;2023-04-27T05:02:22;98860.19;;;15.24;52.64
10587;BME280;5341;47.606;7.576;2023-04-27T05:04:49;98870.16;;;15.23;52.81
10587;BME280;5341;47.606;7.576;2023-04-27T05:07:18;98867.47;;;15.23;52.70
10587;BME280;5341;47.606;7.576;2023-04-27T05:09:47;98870.38;;;15.22;52.81
10587;BME280;5341;47.606;7.576;2023-04-27T05:12:14;98876.56;;;15.22;52.77
10587;BME280;5341;47.606;7.576;2023-04-27T05:14:42;98873.88;;;15.22;52.77
10587;BME280;5341;47.606;7.576;2023-04-27T05:17:09;98877.41;;;15.23;52.94
10587;BME280;5341;47.606;7.576;2023-04-27T05:19:37;98879.28;;;15.22;52.91
10587;BME280;5341;47.606;7.576;2023-04-27T05:22:04;98880.94;;;15.23;52.90
10587;BME280;5341;47.606;7.576;2023-04-27T05:24:33;98879.88;;;15.24;53.05
10587;BME280;5341;47.606;7.576;2023-04-27T05:27:03;98878.22;;;15.23;53.01
10587;BME280;5341;47.606;7.576;2023-04-27T05:29:32;98877.19;;;15.24;52.80
10587;BME280;5341;47.606;7.576;2023-04-27T05:31:59;98877.41;;;15.23;52.82
10587;BME280;5341;47.606;7.576;2023-04-27T05:34:27;98881.13;;;15.22;53.02
10587;BME280;5341;47.606;7.576;2023-04-27T05:36:54;98884.66;;;15.22;53.08
10587;BME280;5341;47.606;7.576;2023-04-27T05:39:22;98882.78;;;15.23;53.28
10587;BME280;5341;47.606;7.576;2023-04-27T05:41:49;98890.03;;;15.22;53.16
10587;BME280;5341;47.606;7.576;2023-04-27T05:44:21;98888.19;;;15.23;53.21
10587;BME280;5341;47.606;7.576;2023-04-27T05:46:53;98888.19;;;15.23;53.23
10587;BME280;5341;47.606;7.576;2023-04-27T05:49:23;98888.19;;;15.23;53.29
10587;BME280;5341;47.606;7.576;2023-04-27T05:51:52;98891.69;;;15.23;53.45
10587;BME280;5341;47.606;7.576;2023-04-27T05:54:19;98892.53;;;15.24;53.40
10587;BME280;5341;47.606;7.576;2023-04-27T05:56:46;98897.53;;;15.27;53.38
10587;BME280;5341;47.606;7.576;2023-04-27T05:59:15;98893.78;;;15.28;53.36
10587;BME280;5341;47.606;7.576;2023-04-27T06:01:44;98903.53;;;15.29;53.42
10587;BME280;5341;47.606;7.576;2023-04-27T06:04:17;98902.50;;;15.30;53.49
10587;BME280;5341;47.606;7.576;2023-04-27T06:06:47;98902.50;;;15.30;53.36
10587;BME280;5341;47.606;7.576;2023-04-27T06:09:15;98912.44;;;15.30;53.50
10587;BME280;5341;47.606;7.576;2023-04-27T06:11:43;98914.09;;;15.31;53.59
10587;BME280;5341;47.606;7.576;2023-04-27T06:14:12;98917.63;;;15.31;53.62
10587;BME280;5341;47.606;7.576;2023-04-27T06:16:39;98919.28;;;15.32;53.53
10587;BME280;5341;47.606;7.576;2023-04-27T06:19:08;98920.72;;;15.35;53.73
10587;BME280;5341;47.606;7.576;2023-04-27T06:21:36;98920.72;;;15.35;53.71
10587;BME280;5341;47.606;7.576;2023-04-27T06:24:03;98923.19;;;15.36;53.53
10587;BME280;5341;47.606;7.576;2023-04-27T06:26:31;98931.88;;;15.38;53.76
10587;BME280;5341;47.606;7.576;2023-04-27T06:29:02;98934.41;;;15.40;53.71
10587;BME280;5341;47.606;7.576;2023-04-27T06:31:33;98928.81;;;15.41;53.57
10587;BME280;5341;47.606;7.576;2023-04-27T06:34:01;98933.16;;;15.42;53.78
10587;BME280;5341;47.606;7.576;2023-04-27T06:36:30;98938.31;;;15.44;53.75
10587;BME280;5341;47.606;7.576;2023-04-27T06:38:57;98938.13;;;15.45;53.97
10587;BME280;5341;47.606;7.576;2023-04-27T06:41:28;98929.00;;;15.46;53.81
10587;BME280;5341;47.606;7.576;2023-04-27T06:43:56;98932.50;;;15.47;53.92
10587;BME280;5341;47.606;7.576;2023-04-27T06:46:25;98938.72;;;15.47;53.41
10587;BME280;5341;47.606;7.576;2023-04-27T06:48:52;98937.69;;;15.48;53.69
10587;BME280;5341;47.606;7.576;2023-04-27T06:51:20;98943.06;;;15.48;53.95
10587;BME280;5341;47.606;7.576;2023-04-27T06:53:49;98935.59;;;15.50;53.61
10587;BME280;5341;47.606;7.576;2023-04-27T06:56:16;98938.94;;;15.52;53.79
10587;BME280;5341;47.606;7.576;2023-04-27T06:58:45;98939.56;;;15.54;53.70
10587;BME280;5341;47.606;7.576;2023-04-27T07:01:13;98933.13;;;15.56;53.58
10587;BME280;5341;47.606;7.576;2023-04-27T07:03:40;98931.25;;;15.56;53.73
10587;BME280;5341;47.606;7.576;2023-04-27T07:06:08;98934.38;;;15.60;53.77
10587;BME280;5341;47.606;7.576;2023-04-27T07:08:35;98931.28;;;15.63;54.00
10587;BME280;5341;47.606;7.576;2023-04-27T07:11:04;98937.09;;;15.66;53.92
10587;BME280;5341;47.606;7.576;2023-04-27T07:13:32;98935.84;;;15.69;53.88
10587;BME280;5341;47.606;7.576;2023-04-27T07:15:59;98929.41;;;15.70;53.77
10587;BME280;5341;47.606;7.576;2023-04-27T07:18:27;98931.66;;;15.73;53.67
10587;BME280;5341;47.606;7.576;2023-04-27T07:20:54;98927.75;;;15.75;53.90
10587;BME280;5341;47.606;7.576;2023-04-27T07:23:22;98929.78;;;15.80;53.88
10587;BME280;5341;47.606;7.576;2023-04-27T07:25:51;98927.50;;;15.83;54.05
10587;BME280;5341;47.606;7.576;2023-04-27T07:28:21;98920.66;;;15.88;53.95
10587;BME280;5341;47.606;7.576;2023-04-27T07:30:48;98917.09;;;15.94;54.05
10587;BME280;5341;47.606;7.576;2023-04-27T07:33:17;98922.66;;;15.99;53.88
10587;BME280;5341;47.606;7.576;2023-04-27T07:35:44;98918.09;;;16.06;53.73
10587;BME280;5341;47.606;7.576;2023-04-27T07:38:12;98905.19;;;16.15;53.83
10587;BME280;5341;47.606;7.576;2023-04-27T07:40:42;98912.84;;;16.24;53.85
10587;BME280;5341;47.606;7.576;2023-04-27T07:43:11;98903.63;;;16.32;53.78
10587;BME280;5341;47.606;7.576;2023-04-27T07:45:42;98906.09;;;16.40;53.79
10587;BME280;5341;47.606;7.576;2023-04-27T07:48:10;98909.38;;;16.49;53.79
10587;BME280;5341;47.606;7.576;2023-04-27T07:50:38;98902.28;;;16.54;53.42
10587;BME280;5341;47.606;7.576;2023-04-27T07:53:06;98905.53;;;16.63;53.30
10587;BME280;5341;47.606;7.576;2023-04-27T07:55:34;98904.47;;;16.70;53.12
10587;BME280;5341;47.606;7.576;2023-04-27T07:58:03;98901.75;;;16.77;53.08
10587;BME280;5341;47.606;7.576;2023-04-27T08:00:30;98900.84;;;16.83;53.52
10587;BME280;5341;47.606;7.576;2023-04-27T08:02:59;98904.72;;;16.94;53.73
10587;BME280;5341;47.606;7.576;2023-04-27T08:05:27;98902.34;;;17.04;53.48
10587;BME280;5341;47.606;7.576;2023-04-27T08:07:55;98895.88;;;17.12;53.57
10587;BME280;5341;47.606;7.576;2023-04-27T08:10:23;98896.41;;;17.20;53.46
10587;BME280;5341;47.606;7.576;2023-04-27T08:12:50;98899.03;;;17.27;53.56
10587;BME280;5341;47.606;7.576;2023-04-27T08:15:19;98895.47;;;17.33;53.21
10587;BME280;5341;47.606;7.576;2023-04-27T08:17:47;98900.78;;;17.40;52.93
10587;BME280;5341;47.606;7.576;2023-04-27T08:20:16;98903.44;;;17.46;53.09
10587;BME280;5341;47.606;7.576;2023-04-27T08:22:43;98906.06;;;17.53;53.05
10587;BME280;5341;47.606;7.576;2023-04-27T08:25:10;98900.59;;;17.60;53.16
10587;BME280;5341;47.606;7.576;2023-04-27T08:27:38;98892.00;;;17.69;53.16
10587;BME280;5341;47.606;7.576;2023-04-27T08:30:07;98893.13;;;17.80;52.86
10587;BME280;5341;47.606;7.576;2023-04-27T08:32:35;98894.84;;;17.93;52.83
10587;BME280;5341;47.606;7.576;2023-04-27T08:35:03;98889.50;;;18.04;52.76
10587;BME280;5341;47.606;7.576;2023-04-27T08:37:32;98894.78;;;18.18;52.38
10587;BME280;5341;47.606;7.576;2023-04-27T08:39:59;98887.53;;;18.30;52.22
10587;BME280;5341;47.606;7.576;2023-04-27T08:42:27;98884.00;;;18.41;52.61
10587;BME280;5341;47.606;7.576;2023-04-27T08:44:55;98888.88;;;18.51;51.73
10587;BME280;5341;47.606;7.576;2023-04-27T08:47:23;98885.38;;;18.62;51.50
10587;BME280;5341;47.606;7.576;2023-04-27T08:49:50;98884.88;;;18.71;51.33
10587;BME280;5341;47.606;7.576;2023-04-27T08:52:18;98881.34;;;18.83;51.49
10587;BME280;5341;47.606;7.576;2023-04-27T08:54:47;98883.03;;;18.95;50.95
10587;BME280;5341;47.606;7.576;2023-04-27T08:57:15;98883.03;;;19.07;50.64
10587;BME280;5341;47.606;7.576;2023-04-27T08:59:44;98878.69;;;19.18;50.66
10587;BME280;5341;47.606;7.576;2023-04-27T09:02:18;98880.81;;;19.27;50.55
10587;BME280;5341;47.606;7.576;2023-04-27T09:04:45;98880.22;;;19.37;49.82
10587;BME280;5341;47.606;7.576;2023-04-27T09:07:16;98881.19;;;19.43;49.48
10587;BME280;5341;47.606;7.576;2023-04-27T09:09:44;98884.81;;;19.48;49.90
10587;BME280;5341;47.606;7.576;2023-04-27T09:12:16;98888.28;;;19.55;50.38
10587;BME280;5341;47.606;7.576;2023-04-27T09:14:55;98884.59;;;19.73;50.09
10587;BME280;5341;47.606;7.576;2023-04-27T09:17:26;98890.34;;;19.88;50.13
10587;BME280;5341;47.606;7.576;2023-04-27T09:20:06;98881.22;;;20.06;49.76
10587;BME280;5341;47.606;7.576;2023-04-27T09:22:42;98891.47;;;20.16;50.43
10587;BME280;5341;47.606;7.576;2023-04-27T09:25:12;98883.03;;;20.29;50.14
10587;BME280;5341;47.606;7.576;2023-04-27T09:27:49;98885.38;;;20.37;49.25
10587;BME280;5341;47.606;7.576;2023-04-27T09:30:17;98882.75;;;20.42;48.61
10587;BME280;5341;47.606;7.576;2023-04-27T09:32:52;98885.09;;;20.51;49.03
10587;BME280;5341;47.606;7.576;2023-04-27T09:35:21;98882.78;;;20.59;49.14
10587;BME280;5341;47.606;7.576;2023-04-27T09:37:49;98885.13;;;20.67;49.30
10587;BME280;5341;47.606;7.576;2023-04-27T09:40:18;98881.44;;;20.73;49.29
10587;BME280;5341;47.606;7.576;2023-04-27T09:42:50;98873.38;;;20.78;48.81
10587;BME280;5341;47.606;7.576;2023-04-27T09:45:18;98878.72;;;20.90;48.24
10587;BME280;5341;47.606;7.576;2023-04-27T09:47:46;98875.38;;;21.00;48.97
10587;BME280;5341;47.606;7.576;2023-04-27T09:50:13;98872.25;;;21.08;47.44
10587;BME280;5341;47.606;7.576;2023-04-27T09:52:42;98873.69;;;21.16;48.54
10587;BME280;5341;47.606;7.576;2023-04-27T09:55:12;98870.25;;;21.20;48.51
10587;BME280;5341;47.606;7.576;2023-04-27T09:57:50;98872.47;;;21.23;47.28
10587;BME280;5341;47.606;7.576;2023-04-27T10:00:29;98871.75;;;21.28;47.77
10587;BME280;5341;47.606;7.576;2023-04-27T10:03:14;98868.88;;;21.34;47.32
10587;BME280;5341;47.606;7.576;2023-04-27T10:06:09;98869.75;;;21.40;45.67
10587;BME280;5341;47.606;7.576;2023-04-27T10:08:39;98860.88;;;21.67;44.71
10587;BME280;5341;47.606;7.576;2023-04-27T10:11:13;98857.28;;;21.83;46.26
10587;BME280;5341;47.606;7.576;2023-04-27T10:13:52;98857.09;;;21.89;45.73
10587;BME280;5341;47.606;7.576;2023-04-27T10:16:20;98855.00;;;21.97;45.80
10587;BME280;5341;47.606;7.576;2023-04-27T10:18:53;98850.16;;;22.04;45.67
10587;BME280;5341;47.606;7.576;2023-04-27T10:21:21;98850.75;;;22.28;43.32
10587;BME280;5341;47.606;7.576;2023-04-27T10:23:51;98850.78;;;22.55;42.37
10587;BME280;5341;47.606;7.576;2023-04-27T10:26:22;98849.22;;;22.64;44.24
10587;BME280;5341;47.606;7.576;2023-04-27T10:28:59;98851.44;;;22.67;44.10
10587;BME280;5341;47.606;7.576;2023-04-27T10:31:30;98843.00;;;22.68;43.72
10587;BME280;5341;47.606;7.576;2023-04-27T10:34:06;98846.00;;;22.72;43.61
10587;BME280;5341;47.606;7.576;2023-04-27T10:36:35;98845.81;;;22.78;44.07
10587;BME280;5341;47.606;7.576;2023-04-27T10:39:13;98851.72;;;22.97;44.53
10587;BME280;5341;47.606;7.576;2023-04-27T10:41:48;98852.59;;;23.03;44.11
10587;BME280;5341;47.606;7.576;2023-04-27T10:44:19;98845.91;;;23.26;43.11
10587;BME280;5341;47.606;7.576;2023-04-27T10:46:52;98845.44;;;23.34;43.37
10587;BME280;5341;47.606;7.576;2023-04-27T10:49:19;98844.41;;;23.45;43.10
10587;BME280;5341;47.606;7.576;2023-04-27T10:51:48;98846.94;;;23.57;43.20
10587;BME280;5341;47.606;7.576;2023-04-27T10:54:16;98847.09;;;23.82;41.60
10587;BME280;5341;47.606;7.576;2023-04-27T10:56:44;98832.97;;;24.06;41.46
10587;BME280;5341;47.606;7.576;2023-04-27T10:59:11;98833.84;;;24.16;41.92
10587;BME280;5341;47.606;7.576;2023-04-27T11:01:40;98831.97;;;24.27;41.70
10587;BME280;5341;47.606;7.576;2023-04-27T11:04:08;98822.38;;;24.30;42.30
10587;BME280;5341;47.606;7.576;2023-04-27T11:06:41;98829.50;;;24.25;41.07
10587;BME280;5341;47.606;7.576;2023-04-27T11:09:10;98828.38;;;24.21;40.93
10587;BME280;5341;47.606;7.576;2023-04-27T11:11:42;98824.81;;;24.21;41.73
10587;BME280;5341;47.606;7.576;2023-04-27T11:14:14;98813.41;;;24.34;41.94
10587;BME280;5341;47.606;7.576;2023-04-27T11:16:47;98817.28;;;24.53;42.03
10587;BME280;5341;47.606;7.576;2023-04-27T11:19:14;98812.91;;;24.68;41.26
10587;BME280;5341;47.606;7.576;2023-04-27T11:21:42;98808.81;;;24.80;41.75
10587;BME280;5341;47.606;7.576;2023-04-27T11:24:10;98813.44;;;25.00;41.28
10587;BME280;5341;47.606;7.576;2023-04-27T11:26:37;98808.28;;;25.09;41.08
10587;BME280;5341;47.606;7.576;2023-04-27T11:29:06;98806.06;;;25.16;40.51
10587;BME280;5341;47.606;7.576;2023-04-27T11:31:39;98812.31;;;25.42;38.36
10587;BME280;5341;47.606;7.576;2023-04-27T11:34:14;98811.72;;;25.55;38.19
10587;BME280;5341;47.606;7.576;2023-04-27T11:36:42;98807.06;;;25.61;39.87
10587;BME280;5341;47.606;7.576;2023-04-27T11:39:15;98808.97;;;25.55;39.26
10587;BME280;5341;47.606;7.576;2023-04-27T11:41:44;98808.47;;;25.48;38.39
10587;BME280;5341;47.606;7.576;2023-04-27T11:44:11;98798.63;;;25.42;38.43
10587;BME280;5341;47.606;7.576;2023-04-27T11:46:43;98790.97;;;25.39;38.30
10587;BME280;5341;47.606;7.576;2023-04-27T11:49:13;98798.63;;;25.47;38.46
10587;BME280;5341;47.606;7.576;2023-04-27T11:51:41;98783.75;;;25.63;38.98
10587;BME280;5341;47.606;7.576;2023-04-27T11:54:09;98795.53;;;25.74;40.24
10587;BME280;5341;47.606;7.576;2023-04-27T11:56:38;98788.66;;;25.77;39.85
10587;BME280;5341;47.606;7.576;2023-04-27T11:59:17;98789.69;;;25.96;39.05
10587;BME280;5341;47.606;7.576;2023-04-27T12:01:45;98787.09;;;26.20;39.72
10587;BME280;5341;47.606;7.576;2023-04-27T12:04:14;98788.66;;;26.31;39.22
10587;BME280;5341;47.606;7.576;2023-04-27T12:06:41;98796.59;;;26.38;39.66
10587;BME280;5341;47.606;7.576;2023-04-27T12:09:09;98788.63;;;26.41;38.59
10587;BME280;5341;47.606;7.576;2023-04-27T12:11:36;98786.72;;;26.37;38.87
10587;BME280;5341;47.606;7.576;2023-04-27T12:14:04;98787.53;;;26.37;38.29
10587;BME280;5341;47.606;7.576;2023-04-27T12:16:32;98795.19;;;26.40;37.82
10587;BME280;5341;47.606;7.576;2023-04-27T12:18:59;98779.66;;;26.65;35.99
10587;BME280;5341;47.606;7.576;2023-04-27T12:21:28;98786.75;;;27.00;36.79
10587;BME280;5341;47.606;7.576;2023-04-27T12:23:57;98784.25;;;27.08;36.99
10587;BME280;5341;47.606;7.576;2023-04-27T12:26:24;98787.69;;;27.19;36.64
10587;BME280;5341;47.606;7.576;2023-04-27T12:28:51;98781.28;;;27.29;36.65
10587;BME280;5341;47.606;7.576;2023-04-27T12:31:19;98787.13;;;27.22;35.90
10587;BME280;5341;47.606;7.576;2023-04-27T12:33:49;98777.63;;;27.09;36.32
10587;BME280;5341;47.606;7.576;2023-04-27T12:36:17;98777.34;;;27.11;35.65
10587;BME280;5341;47.606;7.576;2023-04-27T12:38:46;98780.97;;;27.06;37.26
10587;BME280;5341;47.606;7.576;2023-04-27T12:41:13;98778.81;;;27.03;37.75
10587;BME280;5341;47.606;7.576;2023-04-27T12:43:41;98775.47;;;27.06;36.78
10587;BME280;5341;47.606;7.576;2023-04-27T12:46:10;98774.31;;;27.36;33.22
10587;BME280;5341;47.606;7.576;2023-04-27T12:48:38;98776.66;;;27.48;34.95
10587;BME280;5341;47.606;7.576;2023-04-27T12:51:06;98778.16;;;27.64;33.71
10587;BME280;5341;47.606;7.576;2023-04-27T12:53:33;98770.06;;;27.73;34.07
10587;BME280;5341;47.606;7.576;2023-04-27T12:56:03;98771.19;;;27.72;36.00
10587;BME280;5341;47.606;7.576;2023-04-27T12:58:30;98761.78;;;27.78;33.79
10587;BME280;5341;47.606;7.576;2023-04-27T13:00:58;98764.56;;;27.73;35.86
10587;BME280;5341;47.606;7.576;2023-04-27T13:03:25;98771.28;;;27.62;36.83
10587;BME280;5341;47.606;7.576;2023-04-27T13:05:53;98769.78;;;27.51;36.43
10587;BME280;5341;47.606;7.576;2023-04-27T13:08:20;98760.19;;;27.48;34.95
10587;BME280;5341;47.606;7.576;2023-04-27T13:10:48;98764.28;;;27.51;35.98
10587;BME280;5341;47.606;7.576;2023-04-27T13:13:17;98760.56;;;27.41;35.81
10587;BME280;5341;47.606;7.576;2023-04-27T13:15:44;98760.97;;;27.30;35.54
10587;BME280;5341;47.606;7.576;2023-04-27T13:18:12;98753.94;;;27.19;35.04